sensor_id;sensor_type;location;lat;lon;timestamp;temperature;humidity
75719;DHT22;64340;48.534;-3.036;2024-01-30T00:01:53;18.20;62.50
75719;DHT22;64340;48.534;-3.036;2024-01-30T00:04:19;18.10;62.40
75719;DHT22;64340;48.534;-3.036;2024-01-30T00:06:45;18.10;62.40
75719;DHT22;64340;48.534;-3.036;2024-01-30T00:09:11;18.10;62.30
75719;DHT22;64340;48.534;-3.036;2024-01-30T00:11:40;18.10;62.30
75719;DHT22;64340;48.534;-3.036;2024-01-30T00:14:06;18.10;62.20
75719;DHT22;64340;48.534;-3.036;2024-01-30T00:16:32;18.00;62.40
75719;DHT22;64340;48.534;-3.036;2024-01-30T00:18:57;18.00;62.50
75719;DHT22;64340;48.534;-3.036;2024-01-30T00:21:23;18.00;62.50
75719;DHT22;64340;48.534;-3.036;2024-01-30T00:23:49;18.00;62.50
75719;DHT22;64340;48.534;-3.036;2024-01-30T00:26:15;18.00;62.50
75719;DHT22;64340;48.534;-3.036;2024-01-30T00:28:44;18.00;62.50
75719;DHT22;64340;48.534;-3.036;2024-01-30T00:31:10;17.90;62.50
75719;DHT22;64340;48.534;-3.036;2024-01-30T00:33:39;17.90;62.50
75719;DHT22;64340;48.534;-3.036;2024-01-30T00:36:09;17.90;62.40
75719;DHT22;64340;48.534;-3.036;2024-01-30T00:38:35;17.90;62.40
75719;DHT22;64340;48.534;-3.036;2024-01-30T00:41:01;17.80;62.40
75719;DHT22;64340;48.534;-3.036;2024-01-30T00:43:30;17.80;62.40
75719;DHT22;64340;48.534;-3.036;2024-01-30T00:45:56;17.80;62.40
75719;DHT22;64340;48.534;-3.036;2024-01-30T00:48:23;17.80;62.40
75719;DHT22;64340;48.534;-3.036;2024-01-30T00:50:49;17.80;62.40
75719;DHT22;64340;48.534;-3.036;2024-01-30T00:53:15;17.80;62.40
75719;DHT22;64340;48.534;-3.036;2024-01-30T00:55:41;17.80;62.30
75719;DHT22;64340;48.534;-3.036;2024-01-30T00:58:07;17.80;62.30
75719;DHT22;64340;48.534;-3.036;2024-01-30T01:00:32;17.70;62.40
75719;DHT22;64340;48.534;-3.036;2024-01-30T01:02:59;17.60;62.40
75719;DHT22;64340;48.534;-3.036;2024-01-30T01:05:25;17.70;62.20
75719;DHT22;64340;48.534;-3.036;2024-01-30T01:07:51;17.60;61.80
75719;DHT22;64340;48.534;-3.036;2024-01-30T01:10:17;17.60;62.10
75719;DHT22;64340;48.534;-3.036;2024-01-30T01:12:44;17.60;62.20
75719;DHT22;64340;48.534;-3.036;2024-01-30T01:15:10;17.60;62.00
75719;DHT22;64340;48.534;-3.036;2024-01-30T01:17:37;17.60;61.90
75719;DHT22;64340;48.534;-3.036;2024-01-30T01:20:04;17.60;61.90
75719;DHT22;64340;48.534;-3.036;2024-01-30T01:22:33;17.50;62.00
75719;DHT22;64340;48.534;-3.036;2024-01-30T01:25:00;17.60;62.10
75719;DHT22;64340;48.534;-3.036;2024-01-30T01:27:26;17.50;61.90
75719;DHT22;64340;48.534;-3.036;2024-01-30T01:29:52;17.50;62.10
75719;DHT22;64340;48.534;-3.036;2024-01-30T01:32:18;17.50;62.10
75719;DHT22;64340;48.534;-3.036;2024-01-30T01:34:44;17.50;62.20
75719;DHT22;64340;48.534;-3.036;2024-01-30T01:37:10;17.50;62.20
75719;DHT22;64340;48.534;-3.036;2024-01-30T01:39:35;17.50;62.20
75719;DHT22;64340;48.534;-3.036;2024-01-30T01:42:01;17.50;62.10
75719;DHT22;64340;48.534;-3.036;2024-01-30T01:44:27;17.50;62.10
75719;DHT22;64340;48.534;-3.036;2024-01-30T01:46:54;17.40;62.00
75719;DHT22;64340;48.534;-3.036;2024-01-30T01:49:22;17.40;61.60
75719;DHT22;64340;48.534;-3.036;2024-01-30T01:51:50;17.40;62.00
75719;DHT22;64340;48.534;-3.036;2024-01-30T01:54:17;17.40;61.90
75719;DHT22;64340;48.534;-3.036;2024-01-30T01:56:43;17.40;61.70
75719;DHT22;64340;48.534;-3.036;2024-01-30T01:59:09;17.30;61.70
75719;DHT22;64340;48.534;-3.036;2024-01-30T02:01:36;17.20;61.70
75719;DHT22;64340;48.534;-3.036;2024-01-30T02:04:02;17.20;61.40
75719;DHT22;64340;48.534;-3.036;2024-01-30T02:06:28;17.20;61.40
75719;DHT22;64340;48.534;-3.036;2024-01-30T02:08:55;17.20;61.30
75719;DHT22;64340;48.534;-3.036;2024-01-30T02:11:22;17.20;61.40
75719;DHT22;64340;48.534;-3.036;2024-01-30T02:13:48;17.20;61.20
75719;DHT22;64340;48.534;-3.036;2024-01-30T02:16:14;17.20;61.00
75719;DHT22;64340;48.534;-3.036;2024-01-30T02:18:40;17.20;61.20
75719;DHT22;64340;48.534;-3.036;2024-01-30T02:21:15;17.20;61.20
75719;DHT22;64340;48.534;-3.036;2024-01-30T02:23:43;17.20;61.00
75719;DHT22;64340;48.534;-3.036;2024-01-30T02:26:10;17.10;61.20
75719;DHT22;64340;48.534;-3.036;2024-01-30T02:28:37;17.10;61.10
75719;DHT22;64340;48.534;-3.036;2024-01-30T02:31:04;17.10;61.20
75719;DHT22;64340;48.534;-3.036;2024-01-30T02:33:30;17.10;61.30
75719;DHT22;64340;48.534;-3.036;2024-01-30T02:35:55;17.20;61.30
75719;DHT22;64340;48.534;-3.036;2024-01-30T02:38:22;17.00;61.10
75719;DHT22;64340;48.534;-3.036;2024-01-30T02:40:49;17.00;61.30
75719;DHT22;64340;48.534;-3.036;2024-01-30T02:43:15;17.00;61.40
75719;DHT22;64340;48.534;-3.036;2024-01-30T02:45:41;17.00;61.20
75719;DHT22;64340;48.534;-3.036;2024-01-30T02:48:07;17.00;61.20
75719;DHT22;64340;48.534;-3.036;2024-01-30T02:50:33;17.00;61.30
75719;DHT22;64340;48.534;-3.036;2024-01-30T02:52:59;17.00;61.50
75719;DHT22;64340;48.534;-3.036;2024-01-30T02:55:25;17.00;61.60
75719;DHT22;64340;48.534;-3.036;2024-01-30T02:57:51;17.00;61.60
75719;DHT22;64340;48.534;-3.036;2024-01-30T03:00:17;17.00;61.60
75719;DHT22;64340;48.534;-3.036;2024-01-30T03:02:45;17.00;61.40
75719;DHT22;64340;48.534;-3.036;2024-01-30T03:05:11;17.00;61.40
75719;DHT22;64340;48.534;-3.036;2024-01-30T03:07:36;16.90;61.30
75719;DHT22;64340;48.534;-3.036;2024-01-30T03:10:03;16.90;61.10
75719;DHT22;64340;48.534;-3.036;2024-01-30T03:12:29;16.90;61.30
75719;DHT22;64340;48.534;-3.036;2024-01-30T03:14:55;16.90;61.20
75719;DHT22;64340;48.534;-3.036;2024-01-30T03:17:21;16.90;61.30
75719;DHT22;64340;48.534;-3.036;2024-01-30T03:19:47;16.90;61.20
75719;DHT22;64340;48.534;-3.036;2024-01-30T03:22:13;16.80;61.20
75719;DHT22;64340;48.534;-3.036;2024-01-30T03:24:38;16.80;61.10
75719;DHT22;64340;48.534;-3.036;2024-01-30T03:27:04;16.80;61.10
75719;DHT22;64340;48.534;-3.036;2024-01-30T03:29:30;16.80;61.20
75719;DHT22;64340;48.534;-3.036;2024-01-30T03:31:56;16.80;61.00
75719;DHT22;64340;48.534;-3.036;2024-01-30T03:34:21;16.80;61.00
75719;DHT22;64340;48.534;-3.036;2024-01-30T03:36:47;16.80;61.10
75719;DHT22;64340;48.534;-3.036;2024-01-30T03:39:13;16.70;61.10
75719;DHT22;64340;48.534;-3.036;2024-01-30T03:41:42;16.70;61.10
75719;DHT22;64340;48.534;-3.036;2024-01-30T03:44:10;16.70;61.10
75719;DHT22;64340;48.534;-3.036;2024-01-30T03:46:35;16.70;61.10
75719;DHT22;64340;48.534;-3.036;2024-01-30T03:49:01;16.70;61.10
75719;DHT22;64340;48.534;-3.036;2024-01-30T03:51:27;16.70;61.10
75719;DHT22;64340;48.534;-3.036;2024-01-30T03:53:53;16.70;61.10
75719;DHT22;64340;48.534;-3.036;2024-01-30T03:56:18;16.70;60.90
75719;DHT22;64340;48.534;-3.036;2024-01-30T03:58:44;16.70;60.90
75719;DHT22;64340;48.534;-3.036;2024-01-30T04:01:14;16.70;61.10
75719;DHT22;64340;48.534;-3.036;2024-01-30T04:03:40;16.70;61.10
75719;DHT22;64340;48.534;-3.036;2024-01-30T04:06:07;16.60;61.10
75719;DHT22;64340;48.534;-3.036;2024-01-30T04:08:32;16.60;61.20
75719;DHT22;64340;48.534;-3.036;2024-01-30T04:10:58;16.60;61.40
75719;DHT22;64340;48.534;-3.036;2024-01-30T04:13:24;16.60;61.30
75719;DHT22;64340;48.534;-3.036;2024-01-30T04:15:50;16.60;61.40
75719;DHT22;64340;48.534;-3.036;2024-01-30T04:18:16;16.60;61.40
75719;DHT22;64340;48.534;-3.036;2024-01-30T04:20:41;16.60;61.10
75719;DHT22;64340;48.534;-3.036;2024-01-30T04:23:07;16.60;61.10
75719;DHT22;64340;48.534;-3.036;2024-01-30T04:25:33;16.60;61.20
75719;DHT22;64340;48.534;-3.036;2024-01-30T04:27:59;16.60;61.10
75719;DHT22;64340;48.534;-3.036;2024-01-30T04:30:24;16.60;61.10
75719;DHT22;64340;48.534;-3.036;2024-01-30T04:32:50;16.50;61.10
75719;DHT22;64340;48.534;-3.036;2024-01-30T04:35:16;16.50;61.00
75719;DHT22;64340;48.534;-3.036;2024-01-30T04:37:42;16.50;61.10
75719;DHT22;64340;48.534;-3.036;2024-01-30T04:40:08;16.50;61.10
75719;DHT22;64340;48.534;-3.036;2024-01-30T04:42:35;16.50;61.10
75719;DHT22;64340;48.534;-3.036;2024-01-30T04:45:00;16.50;61.10
75719;DHT22;64340;48.534;-3.036;2024-01-30T04:47:26;16.50;61.00
75719;DHT22;64340;48.534;-3.036;2024-01-30T04:49:52;16.50;61.10
75719;DHT22;64340;48.534;-3.036;2024-01-30T04:52:18;16.40;61.20
75719;DHT22;64340;48.534;-3.036;2024-01-30T04:54:43;16.40;61.20
75719;DHT22;64340;48.534;-3.036;2024-01-30T04:57:09;16.50;61.20
75719;DHT22;64340;48.534;-3.036;2024-01-30T04:59:37;16.40;61.20
75719;DHT22;64340;48.534;-3.036;2024-01-30T05:02:03;16.40;61.10
75719;DHT22;64340;48.534;-3.036;2024-01-30T05:04:29;16.40;61.10
75719;DHT22;64340;48.534;-3.036;2024-01-30T05:06:55;16.40;61.20
75719;DHT22;64340;48.534;-3.036;2024-01-30T05:09:20;16.40;61.20
75719;DHT22;64340;48.534;-3.036;2024-01-30T05:11:46;16.40;61.30
75719;DHT22;64340;48.534;-3.036;2024-01-30T05:14:12;16.40;61.30
75719;DHT22;64340;48.534;-3.036;2024-01-30T05:16:40;16.40;61.30
75719;DHT22;64340;48.534;-3.036;2024-01-30T05:19:06;16.40;61.30
75719;DHT22;64340;48.534;-3.036;2024-01-30T05:21:32;16.40;61.30
75719;DHT22;64340;48.534;-3.036;2024-01-30T05:23:58;16.30;61.40
75719;DHT22;64340;48.534;-3.036;2024-01-30T05:26:24;16.30;61.30
75719;DHT22;64340;48.534;-3.036;2024-01-30T05:28:50;16.30;61.30
75719;DHT22;64340;48.534;-3.036;2024-01-30T05:31:15;16.20;61.40
75719;DHT22;64340;48.534;-3.036;2024-01-30T05:33:41;16.20;61.60
75719;DHT22;64340;48.534;-3.036;2024-01-30T05:36:07;16.20;60.60
75719;DHT22;64340;48.534;-3.036;2024-01-30T05:38:33;16.20;61.10
75719;DHT22;64340;48.534;-3.036;2024-01-30T05:40:59;16.20;61.60
75719;DHT22;64340;48.534;-3.036;2024-01-30T05:43:24;16.30;61.70
75719;DHT22;64340;48.534;-3.036;2024-01-30T05:45:51;16.30;62.50
75719;DHT22;64340;48.534;-3.036;2024-01-30T05:48:17;16.40;63.70
75719;DHT22;64340;48.534;-3.036;2024-01-30T05:50:43;16.40;64.10
75719;DHT22;64340;48.534;-3.036;2024-01-30T05:53:09;16.40;65.00
75719;DHT22;64340;48.534;-3.036;2024-01-30T05:55:34;16.40;64.50
75719;DHT22;64340;48.534;-3.036;2024-01-30T05:58:00;16.40;64.10
75719;DHT22;64340;48.534;-3.036;2024-01-30T06:00:26;16.40;65.00
75719;DHT22;64340;48.534;-3.036;2024-01-30T06:02:52;16.20;65.00
75719;DHT22;64340;48.534;-3.036;2024-01-30T06:05:17;16.10;64.80
75719;DHT22;64340;48.534;-3.036;2024-01-30T06:07:43;16.00;64.60
75719;DHT22;64340;48.534;-3.036;2024-01-30T06:10:09;16.10;64.20
75719;DHT22;64340;48.534;-3.036;2024-01-30T06:12:35;16.00;64.00
75719;DHT22;64340;48.534;-3.036;2024-01-30T06:15:01;16.00;63.90
75719;DHT22;64340;48.534;-3.036;2024-01-30T06:17:28;16.10;64.10
75719;DHT22;64340;48.534;-3.036;2024-01-30T06:19:54;16.10;64.00
75719;DHT22;64340;48.534;-3.036;2024-01-30T06:22:20;16.10;64.30
75719;DHT22;64340;48.534;-3.036;2024-01-30T06:24:46;16.10;64.30
75719;DHT22;64340;48.534;-3.036;2024-01-30T06:27:15;16.10;64.30
75719;DHT22;64340;48.534;-3.036;2024-01-30T06:29:42;16.10;64.20
75719;DHT22;64340;48.534;-3.036;2024-01-30T06:32:08;16.00;64.10
75719;DHT22;64340;48.534;-3.036;2024-01-30T06:34:34;16.00;64.10
75719;DHT22;64340;48.534;-3.036;2024-01-30T06:37:00;16.00;64.00
75719;DHT22;64340;48.534;-3.036;2024-01-30T06:39:26;16.00;64.00
75719;DHT22;64340;48.534;-3.036;2024-01-30T06:41:52;16.00;63.90
75719;DHT22;64340;48.534;-3.036;2024-01-30T06:44:18;16.00;64.00
75719;DHT22;64340;48.534;-3.036;2024-01-30T06:46:44;16.00;64.30
75719;DHT22;64340;48.534;-3.036;2024-01-30T06:49:10;16.00;64.30
75719;DHT22;64340;48.534;-3.036;2024-01-30T06:51:36;16.00;64.40
75719;DHT22;64340;48.534;-3.036;2024-01-30T06:54:01;16.00;64.30
75719;DHT22;64340;48.534;-3.036;2024-01-30T06:56:28;16.00;64.30
75719;DHT22;64340;48.534;-3.036;2024-01-30T06:58:54;16.00;63.80
75719;DHT22;64340;48.534;-3.036;2024-01-30T07:01:19;16.00;63.80
75719;DHT22;64340;48.534;-3.036;2024-01-30T07:03:46;16.00;63.80
75719;DHT22;64340;48.534;-3.036;2024-01-30T07:06:12;16.00;63.70
75719;DHT22;64340;48.534;-3.036;2024-01-30T07:08:38;16.00;63.70
75719;DHT22;64340;48.534;-3.036;2024-01-30T07:11:06;16.00;63.90
75719;DHT22;64340;48.534;-3.036;2024-01-30T07:13:34;16.00;63.70
75719;DHT22;64340;48.534;-3.036;2024-01-30T07:16:00;15.90;63.60
75719;DHT22;64340;48.534;-3.036;2024-01-30T07:18:25;15.90;63.60
75719;DHT22;64340;48.534;-3.036;2024-01-30T07:20:51;15.90;63.60
75719;DHT22;64340;48.534;-3.036;2024-01-30T07:23:17;16.00;63.40
75719;DHT22;64340;48.534;-3.036;2024-01-30T07:25:44;15.90;63.30
75719;DHT22;64340;48.534;-3.036;2024-01-30T07:28:10;15.90;63.30
75719;DHT22;64340;48.534;-3.036;2024-01-30T07:30:37;16.00;63.40
75719;DHT22;64340;48.534;-3.036;2024-01-30T07:33:03;15.90;63.30
75719;DHT22;64340;48.534;-3.036;2024-01-30T07:35:29;15.90;63.40
75719;DHT22;64340;48.534;-3.036;2024-01-30T07:37:55;15.80;63.50
75719;DHT22;64340;48.534;-3.036;2024-01-30T07:40:22;15.80;63.30
75719;DHT22;64340;48.534;-3.036;2024-01-30T07:42:52;15.80;63.20
75719;DHT22;64340;48.534;-3.036;2024-01-30T07:45:19;15.80;63.20
75719;DHT22;64340;48.534;-3.036;2024-01-30T07:47:48;15.80;63.20
75719;DHT22;64340;48.534;-3.036;2024-01-30T07:50:14;15.80;63.20
75719;DHT22;64340;48.534;-3.036;2024-01-30T07:52:40;15.80;63.20
75719;DHT22;64340;48.534;-3.036;2024-01-30T07:58:12;15.80;63.10
75719;DHT22;64340;48.534;-3.036;2024-01-30T08:00:38;15.80;63.10
75719;DHT22;64340;48.534;-3.036;2024-01-30T08:03:04;15.80;63.00
75719;DHT22;64340;48.534;-3.036;2024-01-30T08:05:30;15.80;63.20
75719;DHT22;64340;48.534;-3.036;2024-01-30T08:07:56;15.80;63.30
75719;DHT22;64340;48.534;-3.036;2024-01-30T08:10:22;15.80;63.30
75719;DHT22;64340;48.534;-3.036;2024-01-30T08:12:48;15.80;63.30
75719;DHT22;64340;48.534;-3.036;2024-01-30T08:15:14;15.80;63.20
75719;DHT22;64340;48.534;-3.036;2024-01-30T08:17:39;15.80;63.30
75719;DHT22;64340;48.534;-3.036;2024-01-30T08:20:06;15.80;63.20
75719;DHT22;64340;48.534;-3.036;2024-01-30T08:22:33;15.80;63.20
75719;DHT22;64340;48.534;-3.036;2024-01-30T08:24:59;15.80;63.20
75719;DHT22;64340;48.534;-3.036;2024-01-30T08:27:25;15.80;63.10
75719;DHT22;64340;48.534;-3.036;2024-01-30T08:29:51;15.80;62.90
75719;DHT22;64340;48.534;-3.036;2024-01-30T08:32:16;15.80;62.90
75719;DHT22;64340;48.534;-3.036;2024-01-30T08:34:42;15.80;63.00
75719;DHT22;64340;48.534;-3.036;2024-01-30T08:37:08;15.80;63.10
75719;DHT22;64340;48.534;-3.036;2024-01-30T08:39:34;15.80;62.70
75719;DHT22;64340;48.534;-3.036;2024-01-30T08:42:00;15.80;62.90
75719;DHT22;64340;48.534;-3.036;2024-01-30T08:44:25;15.80;62.70
75719;DHT22;64340;48.534;-3.036;2024-01-30T08:46:51;15.80;62.90
75719;DHT22;64340;48.534;-3.036;2024-01-30T08:49:17;15.80;62.60
75719;DHT22;64340;48.534;-3.036;2024-01-30T08:51:43;15.80;62.70
75719;DHT22;64340;48.534;-3.036;2024-01-30T08:54:09;15.80;62.70
75719;DHT22;64340;48.534;-3.036;2024-01-30T08:56:34;15.80;62.50
75719;DHT22;64340;48.534;-3.036;2024-01-30T08:59:00;15.80;62.60
75719;DHT22;64340;48.534;-3.036;2024-01-30T09:01:26;15.80;62.50
75719;DHT22;64340;48.534;-3.036;2024-01-30T09:03:52;15.80;62.50
75719;DHT22;64340;48.534;-3.036;2024-01-30T09:06:18;15.80;62.50
75719;DHT22;64340;48.534;-3.036;2024-01-30T09:08:43;15.80;62.50
75719;DHT22;64340;48.534;-3.036;2024-01-30T09:11:11;15.80;62.50
75719;DHT22;64340;48.534;-3.036;2024-01-30T09:13:37;15.80;62.40
75719;DHT22;64340;48.534;-3.036;2024-01-30T09:16:03;15.80;62.40
75719;DHT22;64340;48.534;-3.036;2024-01-30T09:18:29;15.80;62.50
75719;DHT22;64340;48.534;-3.036;2024-01-30T09:20:55;15.80;62.30
75719;DHT22;64340;48.534;-3.036;2024-01-30T09:23:21;15.80;62.20
75719;DHT22;64340;48.534;-3.036;2024-01-30T09:25:47;15.80;62.20
75719;DHT22;64340;48.534;-3.036;2024-01-30T09:28:13;15.80;62.20
75719;DHT22;64340;48.534;-3.036;2024-01-30T09:30:39;15.80;62.20
75719;DHT22;64340;48.534;-3.036;2024-01-30T09:33:06;15.80;62.20
75719;DHT22;64340;48.534;-3.036;2024-01-30T09:35:31;15.80;62.10
75719;DHT22;64340;48.534;-3.036;2024-01-30T09:37:57;15.80;62.20
75719;DHT22;64340;48.534;-3.036;2024-01-30T09:40:24;15.90;62.10
75719;DHT22;64340;48.534;-3.036;2024-01-30T09:42:50;15.90;62.10
75719;DHT22;64340;48.534;-3.036;2024-01-30T09:45:19;15.90;62.00
75719;DHT22;64340;48.534;-3.036;2024-01-30T09:47:46;15.90;62.10
75719;DHT22;64340;48.534;-3.036;2024-01-30T09:50:13;15.90;62.10
75719;DHT22;64340;48.534;-3.036;2024-01-30T09:52:39;15.90;62.10
75719;DHT22;64340;48.534;-3.036;2024-01-30T09:55:06;15.90;62.00
75719;DHT22;64340;48.534;-3.036;2024-01-30T09:57:33;15.90;62.00
75719;DHT22;64340;48.534;-3.036;2024-01-30T09:59:59;15.90;61.90
75719;DHT22;64340;48.534;-3.036;2024-01-30T10:02:25;15.90;61.80
75719;DHT22;64340;48.534;-3.036;2024-01-30T10:04:51;16.00;61.80
75719;DHT22;64340;48.534;-3.036;2024-01-30T10:07:18;15.90;61.70
75719;DHT22;64340;48.534;-3.036;2024-01-30T10:09:45;15.90;61.70
75719;DHT22;64340;48.534;-3.036;2024-01-30T10:12:10;16.00;61.70
75719;DHT22;64340;48.534;-3.036;2024-01-30T10:14:40;16.00;61.60
75719;DHT22;64340;48.534;-3.036;2024-01-30T10:17:11;16.00;61.70
75719;DHT22;64340;48.534;-3.036;2024-01-30T10:19:39;16.00;61.60
75719;DHT22;64340;48.534;-3.036;2024-01-30T10:22:05;16.00;61.50
75719;DHT22;64340;48.534;-3.036;2024-01-30T10:24:32;16.00;61.50
75719;DHT22;64340;48.534;-3.036;2024-01-30T10:26:58;15.90;61.60
75719;DHT22;64340;48.534;-3.036;2024-01-30T10:29:24;16.00;61.40
75719;DHT22;64340;48.534;-3.036;2024-01-30T10:32:00;15.90;61.40
75719;DHT22;64340;48.534;-3.036;2024-01-30T10:34:26;16.00;61.30
75719;DHT22;64340;48.534;-3.036;2024-01-30T10:39:28;16.00;61.30
75719;DHT22;64340;48.534;-3.036;2024-01-30T10:41:56;16.00;61.20
75719;DHT22;64340;48.534;-3.036;2024-01-30T10:44:29;16.00;61.10
75719;DHT22;64340;48.534;-3.036;2024-01-30T10:47:00;15.90;61.10
75719;DHT22;64340;48.534;-3.036;2024-01-30T10:49:29;16.00;61.20
75719;DHT22;64340;48.534;-3.036;2024-01-30T10:51:55;16.00;61.00
75719;DHT22;64340;48.534;-3.036;2024-01-30T10:54:23;16.00;60.80
75719;DHT22;64340;48.534;-3.036;2024-01-30T10:56:51;16.00;60.80
75719;DHT22;64340;48.534;-3.036;2024-01-30T10:59:19;16.00;60.80
75719;DHT22;64340;48.534;-3.036;2024-01-30T11:01:46;16.00;60.70
75719;DHT22;64340;48.534;-3.036;2024-01-30T11:04:12;16.00;60.70
75719;DHT22;64340;48.534;-3.036;2024-01-30T11:06:42;16.00;60.70
75719;DHT22;64340;48.534;-3.036;2024-01-30T11:09:11;16.00;60.50
75719;DHT22;64340;48.534;-3.036;2024-01-30T11:11:58;16.00;60.10
75719;DHT22;64340;48.534;-3.036;2024-01-30T11:14:28;16.00;60.00
75719;DHT22;64340;48.534;-3.036;2024-01-30T11:16:58;16.00;59.80
75719;DHT22;64340;48.534;-3.036;2024-01-30T11:19:25;15.90;60.00
75719;DHT22;64340;48.534;-3.036;2024-01-30T11:21:54;15.90;60.00
75719;DHT22;64340;48.534;-3.036;2024-01-30T11:24:24;15.90;60.00
75719;DHT22;64340;48.534;-3.036;2024-01-30T11:26:56;16.00;59.90
75719;DHT22;64340;48.534;-3.036;2024-01-30T11:29:25;16.00;59.70
75719;DHT22;64340;48.534;-3.036;2024-01-30T11:31:55;16.00;59.90
75719;DHT22;64340;48.534;-3.036;2024-01-30T11:34:21;15.90;59.80
75719;DHT22;64340;48.534;-3.036;2024-01-30T11:36:58;15.90;59.70
75719;DHT22;64340;48.534;-3.036;2024-01-30T11:39:25;15.90;59.70
75719;DHT22;64340;48.534;-3.036;2024-01-30T11:41:55;15.90;59.80
75719;DHT22;64340;48.534;-3.036;2024-01-30T11:44:21;15.90;59.80
75719;DHT22;64340;48.534;-3.036;2024-01-30T11:46:48;15.90;59.70
75719;DHT22;64340;48.534;-3.036;2024-01-30T11:49:14;15.80;59.80
75719;DHT22;64340;48.534;-3.036;2024-01-30T11:51:41;15.80;59.80
75719;DHT22;64340;48.534;-3.036;2024-01-30T11:54:07;15.90;59.60
75719;DHT22;64340;48.534;-3.036;2024-01-30T11:56:33;15.80;59.70
75719;DHT22;64340;48.534;-3.036;2024-01-30T11:58:59;15.80;59.60
75719;DHT22;64340;48.534;-3.036;2024-01-30T12:01:26;15.90;59.50
75719;DHT22;64340;48.534;-3.036;2024-01-30T12:03:52;15.90;59.40
75719;DHT22;64340;48.534;-3.036;2024-01-30T12:06:18;15.80;59.60
75719;DHT22;64340;48.534;-3.036;2024-01-30T12:08:59;15.80;59.40
75719;DHT22;64340;48.534;-3.036;2024-01-30T12:11:27;15.90;59.40
75719;DHT22;64340;48.534;-3.036;2024-01-30T12:13:56;15.80;59.40
75719;DHT22;64340;48.534;-3.036;2024-01-30T12:16:22;15.80;59.30
75719;DHT22;64340;48.534;-3.036;2024-01-30T12:18:48;15.90;59.30
75719;DHT22;64340;48.534;-3.036;2024-01-30T12:21:16;15.80;59.10
75719;DHT22;64340;48.534;-3.036;2024-01-30T12:23:43;15.80;59.30
75719;DHT22;64340;48.534;-3.036;2024-01-30T12:26:10;15.90;59.00
75719;DHT22;64340;48.534;-3.036;2024-01-30T12:28:36;15.80;59.30
75719;DHT22;64340;48.534;-3.036;2024-01-30T12:31:05;15.90;59.10
75719;DHT22;64340;48.534;-3.036;2024-01-30T12:33:31;15.90;59.10
75719;DHT22;64340;48.534;-3.036;2024-01-30T12:35:58;15.90;59.00
75719;DHT22;64340;48.534;-3.036;2024-01-30T12:38:27;15.90;58.70
75719;DHT22;64340;48.534;-3.036;2024-01-30T12:40:56;15.80;58.80
75719;DHT22;64340;48.534;-3.036;2024-01-30T12:43:23;15.80;58.80
75719;DHT22;64340;48.534;-3.036;2024-01-30T12:45:50;15.80;59.00
75719;DHT22;64340;48.534;-3.036;2024-01-30T12:48:15;15.80;59.00
75719;DHT22;64340;48.534;-3.036;2024-01-30T12:50:41;15.80;59.10
75719;DHT22;64340;48.534;-3.036;2024-01-30T12:53:08;15.80;59.10
75719;DHT22;64340;48.534;-3.036;2024-01-30T12:55:35;15.80;59.10
75719;DHT22;64340;48.534;-3.036;2024-01-30T12:58:00;15.80;59.10
75719;DHT22;64340;48.534;-3.036;2024-01-30T13:00:27;15.80;59.00
75719;DHT22;64340;48.534;-3.036;2024-01-30T13:02:52;15.80;59.10
75719;DHT22;64340;48.534;-3.036;2024-01-30T13:05:18;15.80;59.10
75719;DHT22;64340;48.534;-3.036;2024-01-30T13:07:44;15.80;59.00
75719;DHT22;64340;48.534;-3.036;2024-01-30T13:10:10;15.80;59.00
75719;DHT22;64340;48.534;-3.036;2024-01-30T13:12:36;15.80;58.90
75719;DHT22;64340;48.534;-3.036;2024-01-30T13:15:04;15.80;59.00
75719;DHT22;64340;48.534;-3.036;2024-01-30T13:17:31;15.80;59.00
75719;DHT22;64340;48.534;-3.036;2024-01-30T13:19:57;15.80;58.90
75719;DHT22;64340;48.534;-3.036;2024-01-30T13:22:23;15.70;59.00
75719;DHT22;64340;48.534;-3.036;2024-01-30T13:24:49;15.80;59.00
75719;DHT22;64340;48.534;-3.036;2024-01-30T13:27:15;15.70;59.00
75719;DHT22;64340;48.534;-3.036;2024-01-30T13:29:41;15.80;59.00
75719;DHT22;64340;48.534;-3.036;2024-01-30T13:32:07;15.70;59.00
75719;DHT22;64340;48.534;-3.036;2024-01-30T13:34:33;15.60;59.10
75719;DHT22;64340;48.534;-3.036;2024-01-30T13:36:58;15.60;59.20
75719;DHT22;64340;48.534;-3.036;2024-01-30T13:39:24;15.60;59.20
75719;DHT22;64340;48.534;-3.036;2024-01-30T13:41:50;15.60;59.10
75719;DHT22;64340;48.534;-3.036;2024-01-30T13:44:16;15.60;59.30
75719;DHT22;64340;48.534;-3.036;2024-01-30T13:46:43;15.60;59.40
75719;DHT22;64340;48.534;-3.036;2024-01-30T13:49:09;15.60;59.10
75719;DHT22;64340;48.534;-3.036;2024-01-30T13:51:34;15.60;59.30
75719;DHT22;64340;48.534;-3.036;2024-01-30T13:54:00;15.60;59.20
75719;DHT22;64340;48.534;-3.036;2024-01-30T13:56:26;15.60;59.30
75719;DHT22;64340;48.534;-3.036;2024-01-30T13:58:52;15.60;59.20
75719;DHT22;64340;48.534;-3.036;2024-01-30T14:01:18;15.60;59.20
75719;DHT22;64340;48.534;-3.036;2024-01-30T14:03:45;15.60;59.10
75719;DHT22;64340;48.534;-3.036;2024-01-30T14:06:11;15.60;59.00
75719;DHT22;64340;48.534;-3.036;2024-01-30T14:08:37;15.60;59.00
75719;DHT22;64340;48.534;-3.036;2024-01-30T14:11:03;15.50;58.80
75719;DHT22;64340;48.534;-3.036;2024-01-30T14:13:29;15.50;58.80
75719;DHT22;64340;48.534;-3.036;2024-01-30T14:15:56;15.40;59.00
75719;DHT22;64340;48.534;-3.036;2024-01-30T14:18:22;15.50;59.00
75719;DHT22;64340;48.534;-3.036;2024-01-30T14:20:48;15.50;59.00
75719;DHT22;64340;48.534;-3.036;2024-01-30T14:23:17;15.60;58.80
75719;DHT22;64340;48.534;-3.036;2024-01-30T14:25:43;15.60;58.80
75719;DHT22;64340;48.534;-3.036;2024-01-30T14:28:10;15.60;58.70
75719;DHT22;64340;48.534;-3.036;2024-01-30T14:30:35;15.60;58.60
75719;DHT22;64340;48.534;-3.036;2024-01-30T14:33:02;15.60;58.80
75719;DHT22;64340;48.534;-3.036;2024-01-30T14:35:28;15.60;58.70
75719;DHT22;64340;48.534;-3.036;2024-01-30T14:37:53;15.60;58.60
75719;DHT22;64340;48.534;-3.036;2024-01-30T14:40:19;15.70;58.60
75719;DHT22;64340;48.534;-3.036;2024-01-30T14:42:45;15.70;58.60
75719;DHT22;64340;48.534;-3.036;2024-01-30T14:45:11;15.80;58.70
75719;DHT22;64340;48.534;-3.036;2024-01-30T14:47:37;15.90;58.70
75719;DHT22;64340;48.534;-3.036;2024-01-30T14:50:04;16.00;58.50
75719;DHT22;64340;48.534;-3.036;2024-01-30T14:52:31;16.10;58.50
75719;DHT22;64340;48.534;-3.036;2024-01-30T14:54:57;16.20;58.50
75719;DHT22;64340;48.534;-3.036;2024-01-30T14:57:24;16.40;58.60
75719;DHT22;64340;48.534;-3.036;2024-01-30T14:59:50;16.50;58.70
75719;DHT22;64340;48.534;-3.036;2024-01-30T15:02:16;16.60;58.80
75719;DHT22;64340;48.534;-3.036;2024-01-30T15:04:42;16.70;58.80
75719;DHT22;64340;48.534;-3.036;2024-01-30T15:07:08;16.80;58.70
75719;DHT22;64340;48.534;-3.036;2024-01-30T15:09:34;16.90;58.70
75719;DHT22;64340;48.534;-3.036;2024-01-30T15:11:59;17.00;58.60
75719;DHT22;64340;48.534;-3.036;2024-01-30T15:14:25;17.00;58.60
75719;DHT22;64340;48.534;-3.036;2024-01-30T15:16:51;17.20;58.50